createdAt,value
2022-10-19T00:01:21.400Z,2.42
2022-10-19T00:03:54.925Z,2.28
2022-10-19T00:06:32.408Z,2.65
2022-10-19T00:09:16.659Z,2.92
2022-10-19T00:11:48.406Z,3.55
2022-10-19T00:14:22.748Z,3.60
2022-10-19T00:16:52.996Z,2.90
2022-10-19T00:19:25.696Z,2.60
2022-10-19T00:21:53.508Z,3.53
2022-10-19T00:24:21.450Z,3.83
2022-10-19T00:26:48.496Z,3.78
2022-10-19T00:29:16.089Z,4.38
2022-10-19T00:31:43.416Z,4.25
2022-10-19T00:34:10.958Z,4.15
2022-10-19T00:36:40.899Z,3.90
2022-10-19T00:39:13.051Z,4.45
2022-10-19T00:41:40.912Z,4.18
2022-10-19T00:44:13.904Z,4.47
2022-10-19T00:46:44.892Z,4.10
2022-10-19T00:49:26.515Z,4.60
2022-10-19T00:52:03.271Z,4.47
2022-10-19T00:54:36.057Z,4.60
2022-10-19T00:57:04.685Z,4.50
2022-10-19T00:59:33.365Z,4.43
2022-10-19T01:02:03.984Z,4.72
2022-10-19T01:04:35.224Z,4.70
2022-10-19T01:07:05.286Z,4.65
2022-10-19T01:09:32.298Z,5.30
2022-10-19T01:12:36.332Z,4.80
2022-10-19T01:15:29.402Z,5.30
2022-10-19T01:18:33.263Z,5.00
2022-10-19T01:21:15.408Z,4.85
2022-10-19T01:24:05.925Z,5.38
2022-10-19T01:26:57.651Z,5.32
2022-10-19T01:29:49.067Z,5.13
2022-10-19T01:32:31.325Z,5.60
2022-10-19T01:35:18.020Z,5.70
2022-10-19T01:38:12.716Z,5.03
2022-10-19T01:41:00.206Z,5.93
2022-10-19T01:43:59.533Z,6.15
2022-10-19T01:46:38.701Z,5.78
2022-10-19T01:49:29.390Z,6.20
2022-10-19T01:52:04.047Z,6.05
2022-10-19T01:54:43.507Z,6.90
2022-10-19T01:57:19.995Z,6.53
2022-10-19T01:59:49.996Z,6.20
2022-10-19T02:02:20.748Z,6.47
2022-10-19T02:04:51.142Z,6.38
2022-10-19T02:07:22.850Z,6.43
2022-10-19T02:09:50.298Z,6.65
2022-10-19T02:12:18.801Z,6.32
2022-10-19T02:14:56.544Z,6.40
2022-10-19T02:17:33.363Z,6.75
2022-10-19T02:20:01.635Z,6.40
2022-10-19T02:22:29.331Z,6.95
2022-10-19T02:24:56.437Z,6.88
2022-10-19T02:27:23.816Z,6.82
2022-10-19T02:29:52.022Z,6.72
2022-10-19T02:32:21.468Z,6.35
2022-10-19T02:34:48.728Z,6.90
2022-10-19T02:37:15.881Z,7.15
2022-10-19T02:39:43.147Z,6.68
2022-10-19T02:42:38.577Z,7.10
2022-10-19T02:45:05.634Z,6.70
2022-10-19T02:47:44.923Z,6.90
2022-10-19T02:50:13.277Z,6.68
2022-10-19T02:52:41.614Z,6.90
2022-10-19T02:55:09.303Z,6.95
2022-10-19T02:57:37.255Z,6.53
2022-10-19T03:00:08.212Z,6.57
2022-10-19T03:02:35.358Z,6.78
2022-10-19T03:05:03.755Z,6.85
2022-10-19T03:07:30.804Z,6.85
2022-10-19T03:09:58.062Z,6.93
2022-10-19T03:12:25.143Z,6.80
2022-10-19T03:14:52.313Z,6.53
2022-10-19T03:17:19.582Z,7.30
2022-10-19T03:19:46.707Z,6.88
2022-10-19T03:22:14.978Z,6.78
2022-10-19T03:24:43.099Z,7.47
2022-10-19T03:27:10.237Z,6.82
2022-10-19T03:29:37.222Z,7.35
2022-10-19T03:32:05.014Z,8.15
2022-10-19T03:34:32.112Z,7.50
2022-10-19T03:36:59.314Z,7.38
2022-10-19T03:39:26.611Z,7.70
2022-10-19T03:41:53.588Z,7.57
2022-10-19T03:44:20.647Z,7.20
2022-10-19T03:46:47.681Z,6.88
2022-10-19T03:49:15.719Z,7.65
2022-10-19T03:51:42.854Z,6.72
2022-10-19T03:54:15.406Z,7.35
2022-10-19T03:56:43.587Z,6.97
2022-10-19T03:59:14.767Z,7.32
2022-10-19T04:01:46.159Z,7.40
2022-10-19T04:04:17.456Z,7.47
2022-10-19T04:06:49.932Z,6.85
2022-10-19T04:09:22.453Z,7.28
2022-10-19T04:11:50.451Z,7.50
2022-10-19T04:14:31.816Z,7.38
2022-10-19T04:17:02.393Z,7.50
2022-10-19T04:19:29.905Z,8.00
2022-10-19T04:21:57.807Z,7.55
2022-10-19T04:24:25.246Z,8.07
2022-10-19T04:26:55.543Z,8.25
2022-10-19T04:29:29.509Z,7.72
2022-10-19T04:31:58.602Z,8.65
2022-10-19T04:34:26.758Z,7.95
2022-10-19T04:36:53.997Z,8.15
2022-10-19T04:39:21.028Z,8.48
2022-10-19T04:41:48.035Z,10.27
2022-10-19T04:44:15.569Z,9.77
2022-10-19T04:46:43.652Z,10.32
2022-10-19T04:49:10.696Z,10.98
2022-10-19T04:51:37.771Z,10.35
2022-10-19T04:54:04.911Z,9.75
2022-10-19T04:56:32.377Z,8.68
2022-10-19T04:59:01.090Z,8.52
2022-10-19T05:01:31.267Z,7.63
2022-10-19T05:04:01.762Z,8.00
2022-10-19T05:06:31.120Z,7.13
2022-10-19T05:08:59.174Z,8.15
2022-10-19T05:11:26.893Z,7.82
2022-10-19T05:13:54.265Z,7.15
2022-10-19T05:16:23.750Z,7.03
2022-10-19T05:18:56.121Z,6.30
2022-10-19T05:21:23.228Z,6.28
2022-10-19T05:23:55.802Z,6.80
2022-10-19T05:26:26.547Z,6.70
2022-10-19T05:29:01.801Z,6.53
2022-10-19T05:31:32.666Z,6.38
2022-10-19T05:34:00.778Z,6.30
2022-10-19T05:36:37.352Z,6.63
2022-10-19T05:39:15.799Z,6.55
2022-10-19T05:41:47.722Z,7.18
2022-10-19T05:44:20.281Z,6.85
2022-10-19T05:46:49.784Z,7.70
2022-10-19T05:49:21.038Z,8.18
2022-10-19T05:51:49.566Z,8.50
2022-10-19T05:54:17.475Z,9.10
2022-10-19T05:56:46.043Z,9.23
2022-10-19T05:59:20.974Z,8.98
2022-10-19T06:01:48.591Z,8.40
2022-10-19T06:06:45.475Z,7.28
2022-10-19T06:09:12.858Z,7.70
2022-10-19T06:11:42.826Z,8.18
2022-10-19T06:14:16.002Z,7.45
2022-10-19T06:16:45.736Z,7.22
2022-10-19T06:19:12.788Z,7.95
2022-10-19T06:21:41.979Z,8.57
2022-10-19T06:24:14.190Z,9.20
2022-10-19T06:26:41.280Z,9.55
2022-10-19T06:29:08.373Z,9.13
2022-10-19T06:31:36.518Z,8.82
2022-10-19T06:34:04.459Z,8.85
2022-10-19T06:36:32.774Z,9.10
2022-10-19T06:39:01.680Z,8.65
2022-10-19T06:41:31.353Z,8.75
2022-10-19T06:44:09.736Z,9.00
2022-10-19T06:46:38.800Z,9.05
2022-10-19T06:49:05.815Z,8.85
2022-10-19T06:51:34.190Z,8.60
2022-10-19T06:54:01.277Z,8.60
2022-10-19T06:56:28.470Z,8.40
2022-10-19T06:58:55.811Z,8.32
2022-10-19T07:01:23.491Z,8.60
2022-10-19T07:03:55.259Z,8.90
2022-10-19T07:06:23.755Z,8.93
2022-10-19T07:08:52.542Z,7.72
2022-10-19T07:11:22.505Z,7.80
2022-10-19T07:13:50.418Z,7.43
2022-10-19T07:16:20.917Z,7.35
2022-10-19T07:18:52.202Z,7.55
2022-10-19T07:21:21.765Z,6.95
2022-10-19T07:23:49.410Z,7.30
2022-10-19T07:26:26.294Z,7.78
2022-10-19T07:28:56.981Z,6.70
2022-10-19T07:31:26.912Z,6.70
2022-10-19T07:34:02.732Z,6.55
2022-10-19T07:36:32.389Z,6.28
2022-10-19T07:39:01.996Z,6.30
2022-10-19T07:41:30.021Z,5.95
2022-10-19T07:43:57.937Z,5.88
2022-10-19T07:46:29.265Z,6.10
2022-10-19T07:48:56.328Z,5.70
2022-10-19T07:51:23.565Z,5.45
2022-10-19T07:53:50.780Z,5.65
2022-10-19T07:56:28.138Z,6.57
2022-10-19T07:58:58.585Z,6.32
2022-10-19T08:01:32.871Z,6.00
2022-10-19T08:06:49.707Z,6.88
2022-10-19T08:09:39.948Z,8.40
2022-10-19T08:12:05.799Z,7.68
2022-10-19T08:14:33.243Z,8.10
2022-10-19T08:17:00.841Z,8.00
2022-10-19T08:19:28.095Z,8.73
2022-10-19T08:21:55.088Z,7.97
2022-10-19T08:24:22.144Z,7.45
2022-10-19T08:26:51.297Z,7.82
2022-10-19T08:29:21.319Z,7.80
2022-10-19T08:31:49.644Z,7.45
2022-10-19T08:34:17.329Z,7.80
2022-10-19T08:36:44.440Z,7.00
2022-10-19T08:39:12.845Z,5.75
2022-10-19T08:41:40.910Z,4.60
2022-10-19T08:45:01.704Z,3.55
2022-10-19T08:47:37.675Z,2.88
2022-10-19T08:50:18.185Z,3.00
2022-10-19T08:52:55.265Z,2.72
2022-10-19T08:55:38.432Z,2.35
2022-10-19T08:58:26.623Z,2.05
2022-10-19T09:01:20.673Z,2.03
2022-10-19T09:03:59.917Z,2.00
2022-10-19T09:06:44.897Z,2.10
2022-10-19T09:09:19.358Z,2.00
2022-10-19T09:11:50.246Z,2.10
2022-10-19T09:14:38.476Z,2.47
2022-10-19T09:17:17.039Z,1.80
2022-10-19T09:19:44.255Z,1.80
2022-10-19T09:22:25.760Z,2.40
2022-10-19T09:24:59.144Z,1.70
2022-10-19T09:27:36.238Z,1.85
2022-10-19T09:30:24.156Z,1.90
2022-10-19T09:33:00.462Z,2.03
2022-10-19T09:35:38.742Z,1.80
2022-10-19T09:38:07.836Z,1.85
2022-10-19T09:40:35.478Z,1.25
2022-10-19T09:43:19.555Z,1.55
2022-10-19T09:46:11.618Z,1.50
2022-10-19T09:48:53.514Z,1.35
2022-10-19T09:51:21.247Z,1.33
2022-10-19T09:53:59.747Z,1.20
2022-10-19T09:56:28.096Z,0.95
2022-10-19T09:58:58.696Z,1.00
2022-10-19T10:01:43.931Z,1.13
2022-10-19T10:04:17.891Z,1.35
2022-10-19T10:06:49.294Z,1.05
2022-10-19T10:09:22.719Z,0.82
2022-10-19T10:11:51.358Z,0.90
2022-10-19T10:14:28.699Z,0.80
2022-10-19T10:17:14.523Z,1.20
2022-10-19T10:20:06.572Z,1.05
2022-10-19T10:22:37.164Z,0.80
2022-10-19T10:25:17.754Z,0.82
2022-10-19T10:27:59.864Z,1.65
2022-10-19T10:30:38.026Z,1.30
2022-10-19T10:33:13.410Z,0.90
2022-10-19T10:36:01.247Z,1.33
2022-10-19T10:38:35.652Z,1.10
2022-10-19T10:41:29.033Z,1.15
2022-10-19T10:44:04.917Z,1.77
2022-10-19T10:47:05.064Z,1.25
2022-10-19T10:49:38.448Z,1.02
2022-10-19T10:52:15.177Z,1.00
2022-10-19T10:55:00.635Z,0.80
2022-10-19T10:57:36.698Z,0.90
2022-10-19T11:00:15.275Z,1.27
2022-10-19T11:02:54.285Z,1.15
2022-10-19T11:05:31.225Z,0.80
2022-10-19T11:08:18.976Z,0.90
2022-10-19T11:11:14.075Z,0.80
2022-10-19T11:13:56.721Z,0.85
2022-10-19T11:16:41.339Z,0.60
2022-10-19T11:22:48.083Z,0.70
2022-10-19T11:25:30.984Z,0.80
2022-10-19T11:28:21.742Z,0.80
2022-10-19T11:31:02.248Z,0.60
2022-10-19T11:33:55.143Z,0.63
2022-10-19T11:36:59.985Z,0.85
2022-10-19T11:40:08.546Z,0.73
2022-10-19T11:42:56.165Z,0.80
2022-10-19T11:45:50.496Z,0.90
2022-10-19T11:48:44.229Z,0.65
2022-10-19T11:51:51.597Z,0.90
2022-10-19T11:54:38.940Z,0.77
2022-10-19T11:57:26.226Z,0.80
2022-10-19T12:00:14.944Z,0.82
2022-10-19T12:06:02.841Z,0.80
2022-10-19T12:08:49.201Z,0.70
2022-10-19T12:11:36.785Z,0.85
2022-10-19T12:14:13.509Z,0.90
2022-10-19T12:16:50.661Z,1.33
2022-10-19T12:19:26.626Z,1.10
2022-10-19T12:22:01.818Z,1.10
2022-10-19T12:24:33.485Z,0.90
2022-10-19T12:27:02.124Z,1.10
2022-10-19T12:29:36.726Z,1.15
2022-10-19T12:32:07.412Z,1.10
2022-10-19T12:34:55.729Z,1.00
2022-10-19T12:37:41.340Z,1.10
2022-10-19T12:40:43.718Z,1.05
2022-10-19T12:43:31.526Z,1.10
2022-10-19T12:46:29.403Z,1.58
2022-10-19T12:49:30.636Z,1.00
2022-10-19T12:52:02.486Z,1.30
2022-10-19T12:54:34.171Z,0.90
2022-10-19T12:57:22.718Z,1.35
2022-10-19T13:00:05.399Z,1.10
2022-10-19T13:02:40.304Z,1.13
2022-10-19T13:05:07.722Z,0.88
2022-10-19T13:07:36.935Z,1.10
2022-10-19T13:10:18.678Z,1.13
2022-10-19T13:12:48.980Z,1.20
2022-10-19T13:15:35.021Z,1.15
2022-10-19T13:18:13.831Z,1.20
2022-10-19T13:20:53.731Z,1.42
2022-10-19T13:23:26.868Z,1.45
2022-10-19T13:26:34.095Z,1.35
2022-10-19T13:29:01.836Z,1.60
2022-10-19T13:31:32.969Z,2.03
2022-10-19T13:34:00.244Z,1.70
2022-10-19T13:36:27.536Z,2.05
2022-10-19T13:39:00.440Z,1.90
2022-10-19T13:41:47.879Z,1.70
2022-10-19T13:44:22.232Z,2.20
2022-10-19T13:47:01.156Z,2.10
2022-10-19T13:49:55.163Z,1.80
2022-10-19T13:52:31.809Z,2.03
2022-10-19T13:55:37.619Z,2.22
2022-10-19T13:58:38.055Z,2.20
2022-10-19T14:01:30.592Z,2.10
2022-10-19T14:04:33.339Z,2.15
2022-10-19T14:07:13.586Z,1.90
2022-10-19T14:10:01.790Z,2.17
2022-10-19T14:12:40.402Z,1.65
2022-10-19T14:15:27.764Z,2.00
2022-10-19T14:17:56.147Z,1.80
2022-10-19T14:20:37.031Z,1.67
2022-10-19T14:23:25.240Z,1.98
2022-10-19T14:26:07.021Z,2.20
2022-10-19T14:28:34.686Z,2.20
2022-10-19T14:31:10.662Z,2.03
2022-10-19T14:33:46.442Z,2.00
2022-10-19T14:36:19.875Z,2.30
2022-10-19T14:38:53.012Z,2.70
2022-10-19T14:41:32.098Z,2.38
2022-10-19T14:44:02.943Z,2.45
2022-10-19T14:46:34.010Z,2.67
2022-10-19T14:49:06.428Z,2.70
2022-10-19T14:51:45.444Z,2.40
2022-10-19T14:54:29.073Z,2.40
2022-10-19T14:57:09.795Z,2.20
2022-10-19T14:59:52.872Z,2.50
2022-10-19T15:02:25.849Z,2.13
2022-10-19T15:04:58.330Z,2.22
2022-10-19T15:07:34.079Z,2.58
2022-10-19T15:10:07.311Z,2.65
2022-10-19T15:12:40.274Z,3.20
2022-10-19T15:15:33.637Z,3.10
2022-10-19T15:18:00.751Z,2.95
2022-10-19T15:20:49.045Z,3.20
2022-10-19T15:23:39.717Z,3.50
2022-10-19T15:26:20.523Z,3.53
2022-10-19T15:28:49.505Z,2.80
2022-10-19T15:31:24.617Z,2.50
2022-10-19T15:33:55.938Z,2.55
2022-10-19T15:36:25.384Z,2.53
2022-10-19T15:39:06.294Z,2.28
2022-10-19T15:41:45.460Z,2.63
2022-10-19T15:44:39.900Z,2.53
2022-10-19T15:47:23.112Z,2.30
2022-10-19T15:49:58.263Z,2.70
2022-10-19T15:52:31.616Z,2.80
2022-10-19T15:55:00.864Z,2.75
2022-10-19T15:57:32.912Z,2.45
2022-10-19T16:00:13.392Z,2.53
2022-10-19T16:02:40.807Z,2.63
2022-10-19T16:05:08.597Z,2.28
2022-10-19T16:07:41.241Z,2.42
2022-10-19T16:10:16.837Z,2.35
2022-10-19T16:12:44.083Z,2.70
2022-10-19T16:15:22.087Z,2.40
2022-10-19T16:17:57.353Z,2.35
2022-10-19T16:20:27.420Z,2.40
2022-10-19T16:22:54.693Z,2.22
2022-10-19T16:25:21.985Z,2.28
2022-10-19T16:27:49.147Z,2.35
2022-10-19T16:30:17.555Z,2.40
2022-10-19T16:32:44.668Z,2.30
2022-10-19T16:35:12.105Z,2.20
2022-10-19T16:37:39.088Z,2.30
2022-10-19T16:40:07.053Z,2.20
2022-10-19T16:42:34.997Z,2.40
2022-10-19T16:45:02.315Z,2.50
2022-10-19T16:47:29.388Z,2.33
2022-10-19T16:50:00.877Z,2.03
2022-10-19T16:52:29.113Z,1.85
2022-10-19T16:54:57.595Z,2.10
2022-10-19T16:57:25.591Z,2.03
2022-10-19T16:59:58.463Z,2.08
2022-10-19T17:02:25.678Z,2.00
2022-10-19T17:04:53.091Z,1.98
2022-10-19T17:07:20.183Z,1.90
2022-10-19T17:09:49.686Z,2.60
2022-10-19T17:12:18.092Z,2.10
2022-10-19T17:14:45.184Z,2.17
2022-10-19T17:17:12.826Z,2.22
2022-10-19T17:19:40.978Z,2.22
2022-10-19T17:22:07.937Z,2.28
2022-10-19T17:24:37.241Z,2.20
2022-10-19T17:27:04.223Z,2.33
2022-10-19T17:29:31.292Z,2.35
2022-10-19T17:31:59.509Z,2.30
2022-10-19T17:34:30.382Z,2.38
2022-10-19T17:36:57.473Z,2.08
2022-10-19T17:39:29.057Z,2.30
2022-10-19T17:42:01.715Z,2.50
2022-10-19T17:44:32.830Z,2.40
2022-10-19T17:47:01.116Z,3.22
2022-10-19T17:49:31.063Z,2.72
2022-10-19T17:51:58.478Z,2.60
2022-10-19T17:54:26.044Z,2.30
2022-10-19T17:56:53.184Z,2.28
2022-10-19T17:59:30.171Z,2.28
2022-10-19T18:02:04.143Z,2.55
2022-10-19T18:04:31.221Z,2.60
2022-10-19T18:06:58.224Z,2.60
2022-10-19T18:09:25.307Z,2.40
2022-10-19T18:11:52.312Z,2.72
2022-10-19T18:14:25.521Z,2.40
2022-10-19T18:16:53.658Z,3.30
2022-10-19T18:19:20.738Z,2.28
2022-10-19T18:21:49.079Z,2.75
2022-10-19T18:24:20.030Z,2.63
2022-10-19T18:26:51.302Z,2.65
2022-10-19T18:29:22.677Z,2.78
2022-10-19T18:31:54.374Z,3.28
2022-10-19T18:34:26.083Z,3.05
2022-10-19T18:36:54.339Z,3.10
2022-10-19T18:39:23.332Z,3.05
2022-10-19T18:41:54.540Z,3.28
2022-10-19T18:44:26.569Z,3.13
2022-10-19T18:46:57.006Z,3.15
2022-10-19T18:49:24.514Z,2.72
2022-10-19T18:51:55.359Z,2.97
2022-10-19T18:54:26.455Z,2.75
2022-10-19T18:56:54.329Z,2.90
2022-10-19T18:59:21.421Z,2.80
2022-10-19T19:01:48.506Z,2.95
2022-10-19T19:04:17.653Z,3.00
2022-10-19T19:06:44.797Z,2.90
2022-10-19T19:09:12.827Z,3.00
2022-10-19T19:11:41.187Z,3.22
2022-10-19T19:14:15.618Z,3.67
2022-10-19T19:16:44.326Z,3.63
2022-10-19T19:19:15.101Z,3.95
2022-10-19T19:21:44.742Z,4.10
2022-10-19T19:24:19.824Z,3.53
2022-10-19T19:26:54.120Z,3.78
2022-10-19T19:29:21.760Z,3.58
2022-10-19T19:31:49.325Z,4.00
2022-10-19T19:34:18.153Z,3.38
2022-10-19T19:36:49.040Z,3.20
2022-10-19T19:39:21.148Z,3.53
2022-10-19T19:41:49.857Z,3.20
2022-10-19T19:44:17.857Z,3.65
2022-10-19T19:46:46.382Z,3.78
2022-10-19T19:49:15.960Z,3.83
2022-10-19T19:51:43.152Z,4.20
2022-10-19T19:54:11.423Z,4.80
2022-10-19T19:56:39.295Z,5.00
2022-10-19T19:59:06.419Z,4.65
2022-10-19T20:01:33.598Z,4.57
2022-10-19T20:06:39.820Z,3.95
2022-10-19T20:09:09.148Z,4.05
2022-10-19T20:11:41.874Z,4.10
2022-10-19T20:14:10.780Z,3.60
2022-10-19T20:16:37.871Z,3.10
2022-10-19T20:19:10.486Z,3.53
2022-10-19T20:21:38.188Z,3.13
2022-10-19T20:24:05.750Z,3.28
2022-10-19T20:26:33.276Z,3.55
2022-10-19T20:29:03.546Z,3.70
2022-10-19T20:31:32.473Z,3.95
2022-10-19T20:33:59.539Z,3.63
2022-10-19T20:36:26.880Z,4.07
2022-10-19T20:38:57.517Z,4.13
2022-10-19T20:41:26.939Z,4.20
2022-10-19T20:43:55.340Z,5.07
2022-10-19T20:46:32.588Z,5.32
2022-10-19T20:49:01.935Z,6.20
2022-10-19T20:51:32.943Z,6.50
2022-10-19T20:54:03.417Z,6.70
2022-10-19T20:56:34.747Z,6.28
2022-10-19T20:59:10.643Z,6.43
2022-10-19T21:01:40.207Z,6.38
2022-10-19T21:04:10.304Z,6.60
2022-10-19T21:06:41.198Z,6.25
2022-10-19T21:09:09.707Z,6.38
2022-10-19T21:11:40.958Z,6.35
2022-10-19T21:14:13.238Z,5.90
2022-10-19T21:16:40.768Z,5.28
2022-10-19T21:19:16.593Z,5.40
2022-10-19T21:21:51.891Z,4.63
2022-10-19T21:24:23.298Z,4.40
2022-10-19T21:29:27.164Z,3.92
2022-10-19T21:31:54.743Z,4.07
2022-10-19T21:34:25.849Z,4.05
2022-10-19T21:36:54.449Z,3.60
2022-10-19T21:39:22.216Z,4.00
2022-10-19T21:41:50.308Z,4.00
2022-10-19T21:44:18.841Z,3.60
2022-10-19T21:46:49.779Z,3.65
2022-10-19T21:49:16.977Z,4.05
2022-10-19T21:51:50.080Z,3.47
2022-10-19T21:54:20.737Z,3.70
2022-10-19T21:56:48.827Z,3.80
2022-10-19T21:59:17.600Z,3.85
2022-10-19T22:01:44.773Z,3.72
2022-10-19T22:04:17.370Z,3.75
2022-10-19T22:06:45.616Z,3.65
2022-10-19T22:09:21.616Z,4.07
2022-10-19T22:11:48.900Z,4.07
2022-10-19T22:14:17.491Z,3.65
2022-10-19T22:16:44.986Z,4.18
2022-10-19T22:19:12.696Z,4.20
2022-10-19T22:21:40.412Z,3.92
2022-10-19T22:24:13.471Z,4.13
2022-10-19T22:26:45.672Z,4.28
2022-10-19T22:29:13.707Z,4.35
2022-10-19T22:31:40.838Z,4.07
2022-10-19T22:34:15.310Z,4.28
2022-10-19T22:39:10.252Z,4.15
2022-10-19T22:42:52.420Z,4.50
2022-10-19T22:45:24.312Z,4.78
2022-10-19T22:47:51.266Z,4.25
2022-10-19T22:50:18.332Z,5.10
2022-10-19T22:52:46.348Z,4.60
2022-10-19T22:55:13.287Z,5.47
2022-10-19T22:57:40.302Z,5.28
2022-10-19T23:00:08.354Z,5.38
2022-10-19T23:02:35.603Z,6.18
2022-10-19T23:05:02.999Z,5.80
2022-10-19T23:07:30.104Z,6.95
2022-10-19T23:09:57.076Z,7.20
2022-10-19T23:12:24.104Z,7.18
2022-10-19T23:14:51.175Z,7.22
2022-10-19T23:17:18.211Z,7.57
2022-10-19T23:19:46.147Z,7.55
2022-10-19T23:22:13.131Z,7.75
2022-10-19T23:24:40.239Z,7.13
2022-10-19T23:27:07.399Z,6.68
2022-10-19T23:29:35.411Z,7.63
2022-10-19T23:32:04.884Z,6.93
2022-10-19T23:34:32.003Z,6.13
2022-10-19T23:36:59.040Z,6.32
2022-10-19T23:39:26.074Z,6.20
2022-10-19T23:41:53.080Z,5.32
2022-10-19T23:44:20.079Z,5.35
2022-10-19T23:46:47.093Z,5.50
2022-10-19T23:49:14.197Z,5.30
2022-10-19T23:51:41.224Z,5.88
2022-10-19T23:54:08.339Z,6.15
2022-10-19T23:56:35.380Z,5.57
2022-10-19T23:59:03.484Z,5.82
